Terminal Aerodrome Forecast
Issued by NWS Tampa Bay Area, FL

Home | Current Version | Previous Version | Text Only | Print | Product List | Glossary On
Versions: 1 2 3 4 5 6 7 8 9 10 11 12 13 14
000
FTUS42 KTBW 261700
TAFSRQ
TAF
KSRQ 261733Z 2618/2718 27008KT P6SM SCT035 BKN250
     FM270000 VRB04KT P6SM FEW150 SCT250
     FM271200 VRB03KT P6SM VCTS SCT025CB
     FM271500 25006KT P6SM VCTS SCT035CB SCT250=

USA.gov is the U.S. government's official web portal to all federal, state and local government web resources and services.